createdAt,value
2022-12-05T00:02:18.323Z,6.10
2022-12-05T00:05:11.806Z,6.10
2022-12-05T00:08:03.268Z,6.20
2022-12-05T00:10:55.882Z,6.20
2022-12-05T00:13:48.233Z,6.20
2022-12-05T00:16:42.339Z,6.20
2022-12-05T00:19:33.908Z,6.20
2022-12-05T00:22:26.984Z,6.20
2022-12-05T00:25:18.343Z,6.20
2022-12-05T00:28:09.801Z,6.20
2022-12-05T00:31:04.727Z,6.20
2022-12-05T00:33:57.224Z,6.20
2022-12-05T00:36:51.111Z,6.20
2022-12-05T00:39:42.652Z,6.20
2022-12-05T00:45:17.388Z,6.20
2022-12-05T00:48:09.345Z,6.20
2022-12-05T00:51:05.559Z,6.10
2022-12-05T00:53:58.711Z,6.20
2022-12-05T00:56:51.699Z,6.20
2022-12-05T00:59:43.201Z,6.10
2022-12-05T01:02:34.715Z,6.10
2022-12-05T01:05:26.376Z,6.10
2022-12-05T01:08:18.069Z,6.20
2022-12-05T01:11:10.961Z,6.10
2022-12-05T01:14:02.239Z,6.10
2022-12-05T01:16:55.268Z,6.10
2022-12-05T01:19:46.847Z,6.10
2022-12-05T01:22:38.614Z,6.10
2022-12-05T01:25:30.139Z,6.00
2022-12-05T01:28:22.179Z,6.00
2022-12-05T01:31:16.648Z,6.00
2022-12-05T01:34:10.911Z,6.00
2022-12-05T01:37:02.776Z,5.90
2022-12-05T01:39:54.430Z,5.90
2022-12-05T01:42:46.284Z,5.90
2022-12-05T01:45:42.576Z,5.90
2022-12-05T01:48:36.817Z,5.90
2022-12-05T01:51:28.840Z,5.90
2022-12-05T01:54:24.025Z,5.90
2022-12-05T01:57:16.927Z,5.90
2022-12-05T02:00:13.095Z,5.90
2022-12-05T02:03:08.467Z,5.90
2022-12-05T02:06:00.427Z,6.00
2022-12-05T02:08:52.734Z,6.00
2022-12-05T02:11:48.497Z,6.00
2022-12-05T02:17:26.275Z,6.00
2022-12-05T02:20:25.904Z,6.00
2022-12-05T02:23:30.870Z,5.90
2022-12-05T02:26:51.164Z,6.00
2022-12-05T02:30:11.060Z,5.90
2022-12-05T02:33:10.863Z,5.90
2022-12-05T02:36:05.313Z,5.90
2022-12-05T02:39:00.313Z,5.80
2022-12-05T02:41:54.887Z,5.80
2022-12-05T02:44:50.042Z,5.70
2022-12-05T02:47:44.801Z,5.70
2022-12-05T02:50:39.390Z,5.80
2022-12-05T02:53:32.802Z,5.70
2022-12-05T02:56:25.591Z,5.70
2022-12-05T02:59:22.827Z,5.70
2022-12-05T03:02:12.369Z,5.70
2022-12-05T03:05:08.318Z,5.70
2022-12-05T03:08:01.855Z,5.70
2022-12-05T03:10:55.362Z,5.70
2022-12-05T03:13:54.085Z,5.70
2022-12-05T03:16:49.038Z,5.70
2022-12-05T03:19:45.007Z,5.70
2022-12-05T03:22:39.297Z,5.70
2022-12-05T03:25:34.233Z,5.60
2022-12-05T03:28:31.626Z,5.70
2022-12-05T03:31:28.514Z,5.60
2022-12-05T03:34:23.119Z,5.60
2022-12-05T03:37:17.430Z,5.50
2022-12-05T03:40:13.407Z,5.50
2022-12-05T03:43:11.357Z,5.50
2022-12-05T03:46:07.534Z,5.50
2022-12-05T03:49:01.952Z,5.50
2022-12-05T03:54:39.401Z,5.50
2022-12-05T03:57:34.308Z,5.50
2022-12-05T04:00:27.752Z,5.50
2022-12-05T04:03:21.908Z,5.50
2022-12-05T04:06:18.510Z,5.60
2022-12-05T04:09:17.055Z,5.50
2022-12-05T04:12:09.447Z,5.50
2022-12-05T04:15:04.471Z,5.50
2022-12-05T04:17:58.712Z,5.50
2022-12-05T04:21:09.585Z,5.50
2022-12-05T04:24:20.254Z,5.60
2022-12-05T04:27:23.830Z,5.50
2022-12-05T04:30:18.739Z,5.50
2022-12-05T04:33:13.893Z,5.60
2022-12-05T04:36:09.470Z,5.50
2022-12-05T04:41:52.157Z,5.40
2022-12-05T04:44:47.523Z,5.40
2022-12-05T04:47:43.261Z,5.40
2022-12-05T04:50:42.033Z,5.50
2022-12-05T04:53:35.590Z,5.40
2022-12-05T04:59:19.507Z,5.50
2022-12-05T05:02:13.554Z,5.40
2022-12-05T05:05:13.776Z,5.40
2022-12-05T05:08:02.737Z,5.30
2022-12-05T05:11:00.609Z,5.30
2022-12-05T05:13:52.844Z,5.40
2022-12-05T05:16:45.749Z,5.40
2022-12-05T05:19:37.272Z,5.40
2022-12-05T05:22:28.918Z,5.40
2022-12-05T05:25:20.935Z,5.40
2022-12-05T05:28:12.440Z,5.40
2022-12-05T05:31:05.963Z,5.40
2022-12-05T05:33:58.696Z,5.40
2022-12-05T05:36:53.933Z,5.30
2022-12-05T05:39:46.910Z,5.30
2022-12-05T05:42:38.728Z,5.30
2022-12-05T05:45:30.210Z,5.30
2022-12-05T05:48:21.374Z,5.30
2022-12-05T05:51:14.184Z,5.30
2022-12-05T05:54:05.892Z,5.30
2022-12-05T05:56:57.599Z,5.20
2022-12-05T05:59:49.659Z,5.20
2022-12-05T06:02:41.479Z,5.10
2022-12-05T06:05:32.873Z,5.20
2022-12-05T06:11:12.022Z,5.10
2022-12-05T06:14:03.045Z,5.00
2022-12-05T06:16:54.450Z,5.00
2022-12-05T06:19:49.360Z,5.10
2022-12-05T06:22:40.919Z,5.00
2022-12-05T06:25:32.719Z,5.00
2022-12-05T06:28:26.682Z,5.00
2022-12-05T06:31:21.091Z,5.10
2022-12-05T06:34:12.810Z,5.00
2022-12-05T06:37:04.412Z,5.00
2022-12-05T06:39:56.090Z,5.10
2022-12-05T06:42:47.943Z,5.10
2022-12-05T06:45:41.308Z,5.00
2022-12-05T06:48:33.081Z,4.90
2022-12-05T06:51:44.991Z,4.80
2022-12-05T06:54:43.265Z,4.90
2022-12-05T06:57:35.017Z,4.90
2022-12-05T07:00:44.521Z,5.00
2022-12-05T07:03:44.476Z,5.00
2022-12-05T07:06:36.815Z,5.10
2022-12-05T07:09:51.788Z,5.00
2022-12-05T07:12:43.149Z,5.00
2022-12-05T07:15:35.052Z,5.10
2022-12-05T07:18:26.538Z,5.10
2022-12-05T07:21:19.170Z,5.10
2022-12-05T07:24:10.700Z,5.10
2022-12-05T07:27:02.146Z,5.10
2022-12-05T07:29:53.925Z,5.00
2022-12-05T07:32:45.597Z,5.10
2022-12-05T07:35:40.393Z,5.20
2022-12-05T07:38:32.169Z,5.20
2022-12-05T07:41:29.706Z,5.30
2022-12-05T07:44:29.271Z,5.30
2022-12-05T07:47:20.729Z,5.30
2022-12-05T07:50:18.870Z,5.30
2022-12-05T07:53:10.362Z,5.40
2022-12-05T07:56:24.024Z,5.30
2022-12-05T07:59:23.513Z,5.30
2022-12-05T08:02:25.211Z,5.20
2022-12-05T08:05:17.351Z,5.20
2022-12-05T08:10:48.657Z,5.20
2022-12-05T08:13:53.754Z,5.20
2022-12-05T08:16:52.532Z,5.20
2022-12-05T08:22:27.634Z,5.20
2022-12-05T08:25:19.345Z,5.30
2022-12-05T08:28:11.891Z,5.40
2022-12-05T08:31:09.449Z,5.40
2022-12-05T08:34:14.420Z,5.40
2022-12-05T08:37:19.162Z,5.40
2022-12-05T08:40:12.699Z,5.40
2022-12-05T08:43:05.074Z,5.50
2022-12-05T08:45:57.174Z,5.50
2022-12-05T08:48:49.001Z,5.60
2022-12-05T08:51:41.566Z,5.60
2022-12-05T08:54:33.512Z,5.60
2022-12-05T08:57:25.180Z,5.60
2022-12-05T09:00:18.927Z,5.60
2022-12-05T09:03:12.574Z,5.50
2022-12-05T09:06:11.472Z,5.60
2022-12-05T09:09:05.754Z,5.70
2022-12-05T09:11:58.818Z,5.70
2022-12-05T09:14:51.771Z,5.70
2022-12-05T09:17:43.264Z,5.70
2022-12-05T09:20:50.963Z,5.80
2022-12-05T09:23:51.105Z,5.90
2022-12-05T09:26:46.508Z,5.80
2022-12-05T09:29:38.604Z,5.90
2022-12-05T09:32:30.457Z,5.90
2022-12-05T09:35:22.029Z,6.00
2022-12-05T09:38:13.992Z,6.00
2022-12-05T09:41:13.268Z,6.10
2022-12-05T09:44:08.070Z,6.20
2022-12-05T09:47:09.174Z,6.30
2022-12-05T09:52:47.299Z,6.30
2022-12-05T09:55:51.023Z,6.50
2022-12-05T09:58:45.941Z,6.60
2022-12-05T10:01:42.013Z,6.50
2022-12-05T10:04:46.213Z,6.50
2022-12-05T10:07:47.810Z,6.40
2022-12-05T10:13:34.977Z,6.30
2022-12-05T10:16:29.509Z,6.30
2022-12-05T10:19:24.810Z,6.40
2022-12-05T10:22:22.508Z,6.50
2022-12-05T10:25:17.171Z,6.60
2022-12-05T10:28:13.807Z,6.70
2022-12-05T10:31:09.196Z,6.80
2022-12-05T10:34:09.985Z,6.70
2022-12-05T10:37:04.621Z,6.60
2022-12-05T10:42:38.048Z,6.70
2022-12-05T10:45:29.594Z,6.70
2022-12-05T10:48:23.061Z,6.70
2022-12-05T10:51:18.033Z,6.60
2022-12-05T10:54:19.112Z,6.70
2022-12-05T10:57:23.085Z,6.60
2022-12-05T11:00:18.407Z,6.50
2022-12-05T11:03:19.638Z,6.40
2022-12-05T11:06:21.426Z,6.40
2022-12-05T11:09:19.934Z,6.30
2022-12-05T11:12:21.080Z,6.40
2022-12-05T11:15:24.504Z,6.40
2022-12-05T11:18:28.645Z,6.50
2022-12-05T11:21:21.039Z,6.60
2022-12-05T11:24:25.529Z,6.70
2022-12-05T11:27:30.760Z,6.80
2022-12-05T11:30:31.518Z,6.80
2022-12-05T11:33:25.765Z,6.90
2022-12-05T11:36:21.067Z,6.90
2022-12-05T11:39:15.246Z,7.00
2022-12-05T11:45:25.354Z,7.10
2022-12-05T11:48:37.452Z,7.20
2022-12-05T11:51:40.079Z,7.20
2022-12-05T11:58:15.255Z,7.10
2022-12-05T12:01:11.988Z,7.20
2022-12-05T12:04:39.311Z,7.20
2022-12-05T12:07:50.122Z,7.20
2022-12-05T12:10:44.790Z,7.20
2022-12-05T12:13:53.344Z,7.30
2022-12-05T12:16:45.851Z,7.40
2022-12-05T12:19:49.972Z,7.40
2022-12-05T12:22:59.073Z,7.40
2022-12-05T12:25:54.658Z,7.50
2022-12-05T12:28:49.877Z,7.50
2022-12-05T12:31:50.316Z,7.70
2022-12-05T12:35:17.358Z,7.80
2022-12-05T12:38:21.292Z,7.90
2022-12-05T12:41:16.257Z,8.00
2022-12-05T12:44:14.535Z,7.90
2022-12-05T12:49:53.184Z,7.90
2022-12-05T12:53:07.151Z,7.90
2022-12-05T12:56:03.112Z,8.00
2022-12-05T12:58:58.200Z,8.00
2022-12-05T13:01:53.672Z,8.10
2022-12-05T13:04:50.854Z,8.20
2022-12-05T13:07:45.961Z,8.20
2022-12-05T13:10:41.462Z,8.30
2022-12-05T13:13:36.788Z,8.40
2022-12-05T13:16:33.358Z,8.50
2022-12-05T13:19:30.655Z,8.80
2022-12-05T13:22:25.252Z,8.90
2022-12-05T13:25:18.666Z,9.00
2022-12-05T13:28:13.722Z,9.00
2022-12-05T13:31:06.667Z,9.00
2022-12-05T13:33:58.048Z,9.10
2022-12-05T13:37:06.933Z,9.10
2022-12-05T13:40:17.505Z,9.00
2022-12-05T13:43:10.459Z,8.90
2022-12-05T13:46:06.464Z,8.90
2022-12-05T13:51:44.082Z,8.90
2022-12-05T13:54:36.939Z,8.90
2022-12-05T13:57:53.525Z,8.90
2022-12-05T14:00:46.149Z,9.00
2022-12-05T14:07:01.899Z,8.80
2022-12-05T14:09:55.790Z,8.70
2022-12-05T14:12:54.157Z,8.70
2022-12-05T14:16:13.892Z,8.60
2022-12-05T14:19:08.219Z,8.60
2022-12-05T14:22:07.505Z,8.50
2022-12-05T14:25:03.611Z,8.50
2022-12-05T14:27:58.589Z,8.50
2022-12-05T14:30:59.201Z,8.40
2022-12-05T14:34:05.953Z,8.30
2022-12-05T14:37:04.409Z,8.40
2022-12-05T14:39:58.089Z,8.40
2022-12-05T14:42:58.047Z,8.40
2022-12-05T14:45:58.167Z,8.40
2022-12-05T14:48:51.018Z,8.50
2022-12-05T14:54:45.125Z,8.30
2022-12-05T15:00:24.012Z,8.20
2022-12-05T15:06:05.466Z,7.90
2022-12-05T15:09:28.439Z,7.80
2022-12-05T15:11:53.958Z,7.70
2022-12-05T15:14:55.125Z,7.70
2022-12-05T15:17:53.862Z,7.60
2022-12-05T15:23:47.887Z,7.40
2022-12-05T15:26:47.448Z,7.40
2022-12-05T15:29:36.527Z,7.40
2022-12-05T15:32:30.072Z,7.30
2022-12-05T15:38:46.075Z,7.20
2022-12-05T15:41:39.144Z,7.10
2022-12-05T15:44:38.052Z,7.10
2022-12-05T15:47:28.305Z,7.00
2022-12-05T15:50:24.701Z,7.00
2022-12-05T15:56:01.578Z,6.80
2022-12-05T15:58:56.386Z,6.80
2022-12-05T16:01:52.790Z,6.70
2022-12-05T16:04:49.667Z,6.70
2022-12-05T16:07:41.403Z,6.60
2022-12-05T16:10:34.407Z,6.50
2022-12-05T16:13:28.397Z,6.50
2022-12-05T16:16:23.299Z,6.40
2022-12-05T16:19:19.492Z,6.40
2022-12-05T16:22:18.036Z,6.40
2022-12-05T16:25:18.225Z,6.30
2022-12-05T16:28:19.783Z,6.30
2022-12-05T16:31:18.194Z,6.30
2022-12-05T16:34:16.327Z,6.30
2022-12-05T16:37:08.468Z,6.30
2022-12-05T16:40:00.588Z,6.30
2022-12-05T16:43:06.261Z,6.30
2022-12-05T16:45:59.836Z,6.20
2022-12-05T16:48:55.952Z,6.20
2022-12-05T16:51:49.983Z,6.20
2022-12-05T16:54:43.474Z,6.10
2022-12-05T16:57:34.646Z,6.10
2022-12-05T17:00:27.147Z,6.10
2022-12-05T17:03:33.888Z,6.00
2022-12-05T17:06:15.265Z,6.00
2022-12-05T17:09:06.914Z,6.00
2022-12-05T17:12:01.309Z,6.00
2022-12-05T17:14:56.349Z,5.90
2022-12-05T17:17:47.943Z,5.90
2022-12-05T17:20:43.386Z,5.90
2022-12-05T17:26:21.607Z,5.80
2022-12-05T17:29:13.637Z,5.80
2022-12-05T17:32:04.714Z,5.80
2022-12-05T17:34:56.684Z,5.70
2022-12-05T17:37:50.157Z,5.70
2022-12-05T17:40:43.679Z,5.60
2022-12-05T17:43:35.304Z,5.60
2022-12-05T17:46:26.817Z,5.70
2022-12-05T17:49:20.401Z,5.60
2022-12-05T17:52:27.161Z,5.60
2022-12-05T17:55:04.773Z,5.50
2022-12-05T17:57:56.904Z,5.50
2022-12-05T18:00:49.013Z,5.50
2022-12-05T18:03:40.148Z,5.40
2022-12-05T18:06:33.857Z,5.40
2022-12-05T18:09:25.162Z,5.40
2022-12-05T18:12:16.709Z,5.40
2022-12-05T18:15:13.309Z,5.40
2022-12-05T18:18:07.002Z,5.40
2022-12-05T18:21:06.082Z,5.50
2022-12-05T18:23:57.727Z,5.50
2022-12-05T18:26:49.640Z,5.40
2022-12-05T18:29:41.274Z,5.40
2022-12-05T18:32:32.700Z,5.40
2022-12-05T18:35:25.398Z,5.40
2022-12-05T18:38:16.710Z,5.40
2022-12-05T18:41:15.118Z,5.30
2022-12-05T18:44:08.558Z,5.40
2022-12-05T18:47:00.330Z,5.40
2022-12-05T18:49:51.832Z,5.30
2022-12-05T18:52:44.597Z,5.30
2022-12-05T18:55:58.391Z,5.40
2022-12-05T18:58:31.606Z,5.40
2022-12-05T19:01:23.917Z,5.40
2022-12-05T19:04:18.133Z,5.50
2022-12-05T19:10:03.007Z,5.50
2022-12-05T19:12:54.407Z,5.50
2022-12-05T19:15:46.074Z,5.60
2022-12-05T19:18:37.641Z,5.60
2022-12-05T19:21:30.960Z,5.60
2022-12-05T19:24:22.787Z,5.60
2022-12-05T19:27:15.589Z,5.60
2022-12-05T19:30:11.128Z,5.50
2022-12-05T19:33:02.741Z,5.50
2022-12-05T19:35:56.244Z,5.50
2022-12-05T19:38:50.123Z,5.50
2022-12-05T19:41:44.577Z,5.50
2022-12-05T19:44:36.049Z,5.50
2022-12-05T19:47:28.223Z,5.50
2022-12-05T19:50:20.138Z,5.50
2022-12-05T19:53:12.533Z,5.50
2022-12-05T19:56:05.562Z,5.50
2022-12-05T19:58:59.909Z,5.50
2022-12-05T20:01:51.777Z,5.50
2022-12-05T20:04:44.008Z,5.50
2022-12-05T20:07:35.783Z,5.50
2022-12-05T20:10:27.484Z,5.40
2022-12-05T20:13:45.211Z,5.40
2022-12-05T20:16:15.969Z,5.30
2022-12-05T20:19:08.960Z,5.30
2022-12-05T20:22:03.332Z,5.30
2022-12-05T20:24:54.872Z,5.30
2022-12-05T20:27:46.950Z,5.30
2022-12-05T20:30:38.654Z,5.40
2022-12-05T20:33:31.436Z,5.30
2022-12-05T20:36:24.636Z,5.30
2022-12-05T20:39:18.943Z,5.30
2022-12-05T20:42:11.019Z,5.20
2022-12-05T20:45:02.694Z,5.20
2022-12-05T20:47:54.548Z,5.10
2022-12-05T20:50:47.705Z,5.00
2022-12-05T20:53:41.262Z,5.00
2022-12-05T20:56:34.628Z,5.00
2022-12-05T20:59:26.112Z,5.00
2022-12-05T21:02:18.133Z,5.00
2022-12-05T21:05:12.604Z,5.00
2022-12-05T21:08:04.615Z,4.90
2022-12-05T21:10:56.128Z,4.90
2022-12-05T21:13:47.183Z,4.80
2022-12-05T21:16:38.713Z,4.80
2022-12-05T21:19:30.333Z,4.80
2022-12-05T21:22:21.803Z,4.70
2022-12-05T21:25:13.312Z,4.70
2022-12-05T21:28:05.524Z,4.70
2022-12-05T21:30:57.015Z,4.60
2022-12-05T21:33:52.042Z,4.60
2022-12-05T21:36:46.553Z,4.60
2022-12-05T21:39:37.881Z,4.70
2022-12-05T21:42:29.461Z,4.60
2022-12-05T21:45:20.833Z,4.60
2022-12-05T21:48:12.132Z,4.60
2022-12-05T21:51:05.578Z,4.50
2022-12-05T21:53:57.128Z,4.50
2022-12-05T21:56:48.430Z,4.50
2022-12-05T21:59:39.957Z,4.50
2022-12-05T22:02:31.717Z,4.50
2022-12-05T22:05:23.266Z,4.50
2022-12-05T22:08:14.692Z,4.50
2022-12-05T22:11:08.915Z,4.50
2022-12-05T22:14:00.596Z,4.50
2022-12-05T22:16:53.682Z,4.40
2022-12-05T22:22:24.807Z,4.40
2022-12-05T22:25:17.149Z,4.50
2022-12-05T22:28:08.797Z,4.50
2022-12-05T22:31:03.091Z,4.40
2022-12-05T22:33:54.901Z,4.30
2022-12-05T22:36:46.295Z,4.30
2022-12-05T22:39:37.929Z,4.40
2022-12-05T22:42:29.715Z,4.40
2022-12-05T22:45:21.204Z,4.30
2022-12-05T22:48:12.733Z,4.30
2022-12-05T22:51:07.299Z,4.30
2022-12-05T22:53:58.869Z,4.30
2022-12-05T22:56:50.737Z,4.20
2022-12-05T22:59:42.167Z,4.20
2022-12-05T23:02:33.997Z,4.20
2022-12-05T23:05:27.826Z,4.30
2022-12-05T23:08:19.483Z,4.30
2022-12-05T23:11:12.721Z,4.20
2022-12-05T23:14:05.911Z,4.20
2022-12-05T23:16:57.562Z,4.20
2022-12-05T23:19:49.251Z,4.20
2022-12-05T23:22:40.755Z,4.20
2022-12-05T23:25:32.333Z,4.30
2022-12-05T23:28:24.133Z,4.20
2022-12-05T23:31:16.411Z,4.20
2022-12-05T23:34:08.405Z,4.20
2022-12-05T23:37:00.546Z,4.20
2022-12-05T23:39:52.377Z,4.20
2022-12-05T23:42:43.922Z,4.10
2022-12-05T23:45:36.345Z,4.10
2022-12-05T23:48:28.426Z,4.00
2022-12-05T23:51:22.915Z,4.00
2022-12-05T23:54:14.851Z,4.00
2022-12-05T23:57:06.448Z,3.90
2022-12-05T23:59:58.265Z,3.90
